sensor_id;sensor_type;location;lat;lon;timestamp;pressure;altitude;pressure_sealevel;temperature;humidity
11395;BME280;5753;54.402;10.220;2024-01-16T00:01:37;100363.91;;;-3.65;87.68
11395;BME280;5753;54.402;10.220;2024-01-16T00:04:04;100367.19;;;-3.75;88.38
11395;BME280;5753;54.402;10.220;2024-01-16T00:06:31;100363.00;;;-3.74;88.56
11395;BME280;5753;54.402;10.220;2024-01-16T00:08:58;100364.69;;;-3.73;88.35
11395;BME280;5753;54.402;10.220;2024-01-16T00:11:24;100368.00;;;-3.77;88.30
11395;BME280;5753;54.402;10.220;2024-01-16T00:13:51;100373.88;;;-3.78;88.44
11395;BME280;5753;54.402;10.220;2024-01-16T00:16:19;100384.81;;;-3.79;88.87
11395;BME280;5753;54.402;10.220;2024-01-16T00:18:46;100387.28;;;-3.81;88.48
11395;BME280;5753;54.402;10.220;2024-01-16T00:21:14;100380.56;;;-3.83;88.84
11395;BME280;5753;54.402;10.220;2024-01-16T00:23:41;100379.66;;;-3.88;88.95
11395;BME280;5753;54.402;10.220;2024-01-16T00:26:18;100378.75;;;-3.95;89.17
11395;BME280;5753;54.402;10.220;2024-01-16T00:28:45;100388.06;;;-3.89;89.04
11395;BME280;5753;54.402;10.220;2024-01-16T00:31:13;100389.66;;;-3.96;89.41
11395;BME280;5753;54.402;10.220;2024-01-16T00:33:39;100383.81;;;-3.93;89.25
11395;BME280;5753;54.402;10.220;2024-01-16T00:36:07;100380.47;;;-3.92;89.34
11395;BME280;5753;54.402;10.220;2024-01-16T00:38:35;100385.50;;;-3.92;89.46
11395;BME280;5753;54.402;10.220;2024-01-16T00:41:03;100393.88;;;-3.95;89.96
11395;BME280;5753;54.402;10.220;2024-01-16T00:43:29;100390.50;;;-3.96;89.63
11395;BME280;5753;54.402;10.220;2024-01-16T00:45:57;100388.00;;;-3.97;89.82
11395;BME280;5753;54.402;10.220;2024-01-16T00:48:23;100389.63;;;-3.99;89.85
11395;BME280;5753;54.402;10.220;2024-01-16T00:50:50;100392.13;;;-4.02;90.07
11395;BME280;5753;54.402;10.220;2024-01-16T00:53:18;100389.59;;;-4.01;90.41
11395;BME280;5753;54.402;10.220;2024-01-16T00:55:47;100387.97;;;-3.99;89.94
11395;BME280;5753;54.402;10.220;2024-01-16T00:58:14;100398.91;;;-3.97;90.07
11395;BME280;5753;54.402;10.220;2024-01-16T01:00:42;100414.09;;;-3.90;89.89
11395;BME280;5753;54.402;10.220;2024-01-16T01:03:10;100404.06;;;-3.87;90.12
11395;BME280;5753;54.402;10.220;2024-01-16T01:05:39;100404.84;;;-3.90;89.49
11395;BME280;5753;54.402;10.220;2024-01-16T01:08:06;100398.94;;;-3.92;89.50
11395;BME280;5753;54.402;10.220;2024-01-16T01:10:34;100405.63;;;-3.97;89.47
11395;BME280;5753;54.402;10.220;2024-01-16T01:13:00;100401.41;;;-3.98;88.97
11395;BME280;5753;54.402;10.220;2024-01-16T01:15:28;100403.97;;;-3.92;89.00
11395;BME280;5753;54.402;10.220;2024-01-16T01:17:56;100408.22;;;-3.91;88.73
11395;BME280;5753;54.402;10.220;2024-01-16T01:20:22;100407.31;;;-3.96;88.86
11395;BME280;5753;54.402;10.220;2024-01-16T01:22:50;100399.75;;;-3.98;88.82
11395;BME280;5753;54.402;10.220;2024-01-16T01:25:17;100405.63;;;-3.96;88.93
11395;BME280;5753;54.402;10.220;2024-01-16T01:27:45;100401.41;;;-3.98;88.90
11395;BME280;5753;54.402;10.220;2024-01-16T01:30:13;100403.16;;;-3.92;89.30
11395;BME280;5753;54.402;10.220;2024-01-16T01:32:39;100393.97;;;-3.87;89.03
11395;BME280;5753;54.402;10.220;2024-01-16T01:35:08;100398.97;;;-3.90;89.33
11395;BME280;5753;54.402;10.220;2024-01-16T01:37:37;100391.41;;;-3.90;89.14
11395;BME280;5753;54.402;10.220;2024-01-16T01:40:04;100382.94;;;-3.97;88.84
11395;BME280;5753;54.402;10.220;2024-01-16T01:42:31;100384.59;;;-3.99;89.31
11395;BME280;5753;54.402;10.220;2024-01-16T01:45:01;100384.59;;;-3.99;89.01
11395;BME280;5753;54.402;10.220;2024-01-16T01:47:27;100381.28;;;-3.93;89.41
11395;BME280;5753;54.402;10.220;2024-01-16T01:49:57;100372.94;;;-3.86;89.65
11395;BME280;5753;54.402;10.220;2024-01-16T01:52:25;100370.50;;;-3.80;89.68
11395;BME280;5753;54.402;10.220;2024-01-16T01:54:53;100368.81;;;-3.80;89.59
11395;BME280;5753;54.402;10.220;2024-01-16T01:57:21;100387.38;;;-3.75;89.55
11395;BME280;5753;54.402;10.220;2024-01-16T01:59:51;100390.75;;;-3.71;89.30
11395;BME280;5753;54.402;10.220;2024-01-16T02:02:19;100392.47;;;-3.69;89.08
11395;BME280;5753;54.402;10.220;2024-01-16T02:04:48;100394.19;;;-3.65;89.02
11395;BME280;5753;54.402;10.220;2024-01-16T02:07:18;100408.50;;;-3.65;88.88
11395;BME280;5753;54.402;10.220;2024-01-16T02:09:47;100427.00;;;-3.65;89.33
11395;BME280;5753;54.402;10.220;2024-01-16T02:12:15;100435.44;;;-3.58;89.42
11395;BME280;5753;54.402;10.220;2024-01-16T02:14:41;100433.84;;;-3.55;89.54
11395;BME280;5753;54.402;10.220;2024-01-16T02:17:10;100435.47;;;-3.57;89.19
11395;BME280;5753;54.402;10.220;2024-01-16T02:19:37;100441.31;;;-3.64;89.36
11395;BME280;5753;54.402;10.220;2024-01-16T02:22:05;100454.69;;;-3.71;89.38
11395;BME280;5753;54.402;10.220;2024-01-16T02:24:36;100457.97;;;-3.78;89.10
11395;BME280;5753;54.402;10.220;2024-01-16T02:27:04;100459.53;;;-3.86;89.20
11395;BME280;5753;54.402;10.220;2024-01-16T02:29:30;100456.13;;;-3.92;88.87
11395;BME280;5753;54.402;10.220;2024-01-16T02:31:58;100450.19;;;-3.98;89.09
11395;BME280;5753;54.402;10.220;2024-01-16T02:34:24;100451.81;;;-4.00;89.22
11395;BME280;5753;54.402;10.220;2024-01-16T02:36:52;100450.13;;;-4.01;88.86
11395;BME280;5753;54.402;10.220;2024-01-16T02:39:18;100450.06;;;-4.07;89.28
11395;BME280;5753;54.402;10.220;2024-01-16T02:41:47;100457.69;;;-4.01;89.21
11395;BME280;5753;54.402;10.220;2024-01-16T02:44:13;100465.34;;;-3.95;88.94
11395;BME280;5753;54.402;10.220;2024-01-16T02:46:41;100465.41;;;-3.88;88.75
11395;BME280;5753;54.402;10.220;2024-01-16T02:49:09;100464.63;;;-3.84;89.10
11395;BME280;5753;54.402;10.220;2024-01-16T02:51:35;100467.16;;;-3.83;88.75
11395;BME280;5753;54.402;10.220;2024-01-16T02:54:02;100468.06;;;-3.76;88.90
11395;BME280;5753;54.402;10.220;2024-01-16T02:56:30;100460.50;;;-3.76;88.50
11395;BME280;5753;54.402;10.220;2024-01-16T02:58:57;100455.41;;;-3.81;88.92
11395;BME280;5753;54.402;10.220;2024-01-16T03:01:25;100461.22;;;-3.86;88.51
11395;BME280;5753;54.402;10.220;2024-01-16T03:03:51;100455.34;;;-3.85;88.64
11395;BME280;5753;54.402;10.220;2024-01-16T03:06:24;100458.75;;;-3.82;88.49
11395;BME280;5753;54.402;10.220;2024-01-16T03:08:52;100452.63;;;-4.04;88.87
11395;BME280;5753;54.402;10.220;2024-01-16T03:11:20;100459.13;;;-4.19;88.77
11395;BME280;5753;54.402;10.220;2024-01-16T03:13:47;100459.81;;;-4.32;89.17
11395;BME280;5753;54.402;10.220;2024-01-16T03:16:15;100457.13;;;-4.43;89.15
11395;BME280;5753;54.402;10.220;2024-01-16T03:18:43;100461.13;;;-4.57;89.26
11395;BME280;5753;54.402;10.220;2024-01-16T03:21:12;100460.97;;;-4.68;89.40
11395;BME280;5753;54.402;10.220;2024-01-16T03:23:40;100470.41;;;-4.56;89.64
11395;BME280;5753;54.402;10.220;2024-01-16T03:26:11;100480.75;;;-4.36;90.17
11395;BME280;5753;54.402;10.220;2024-01-16T03:28:38;100478.31;;;-4.32;89.80
11395;BME280;5753;54.402;10.220;2024-01-16T03:31:06;100469.34;;;-4.10;89.84
11395;BME280;5753;54.402;10.220;2024-01-16T03:33:34;100477.16;;;-3.90;89.86
11395;BME280;5753;54.402;10.220;2024-01-16T03:36:03;100473.09;;;-3.76;89.90
11395;BME280;5753;54.402;10.220;2024-01-16T03:38:30;100464.66;;;-3.81;89.57
11395;BME280;5753;54.402;10.220;2024-01-16T03:40:59;100473.09;;;-3.76;89.81
11395;BME280;5753;54.402;10.220;2024-01-16T03:43:27;100468.88;;;-3.77;89.18
11395;BME280;5753;54.402;10.220;2024-01-16T03:45:53;100457.78;;;-3.93;89.55
11395;BME280;5753;54.402;10.220;2024-01-16T03:48:19;100455.13;;;-4.07;89.64
11395;BME280;5753;54.402;10.220;2024-01-16T03:50:47;100467.56;;;-4.19;89.60
11395;BME280;5753;54.402;10.220;2024-01-16T03:53:15;100469.19;;;-4.21;89.86
11395;BME280;5753;54.402;10.220;2024-01-16T03:55:43;100464.41;;;-4.03;89.66
11395;BME280;5753;54.402;10.220;2024-01-16T03:58:12;100473.66;;;-4.00;89.59
11395;BME280;5753;54.402;10.220;2024-01-16T04:00:40;100466.88;;;-4.06;89.67
11395;BME280;5753;54.402;10.220;2024-01-16T04:03:07;100465.91;;;-4.15;89.52
11395;BME280;5753;54.402;10.220;2024-01-16T04:05:34;100472.47;;;-4.28;89.71
11395;BME280;5753;54.402;10.220;2024-01-16T04:08:02;100477.47;;;-4.29;89.60
11395;BME280;5753;54.402;10.220;2024-01-16T04:10:29;100478.44;;;-4.23;89.72
11395;BME280;5753;54.402;10.220;2024-01-16T04:12:59;100469.91;;;-4.29;90.03
11395;BME280;5753;54.402;10.220;2024-01-16T04:15:27;100474.09;;;-4.33;89.75
11395;BME280;5753;54.402;10.220;2024-01-16T04:17:54;100468.88;;;-4.44;90.18
11395;BME280;5753;54.402;10.220;2024-01-16T04:20:22;100469.78;;;-4.42;90.10
11395;BME280;5753;54.402;10.220;2024-01-16T04:22:49;100468.03;;;-4.46;90.06
11395;BME280;5753;54.402;10.220;2024-01-16T04:25:17;100476.41;;;-4.47;89.76
11395;BME280;5753;54.402;10.220;2024-01-16T04:27:43;100476.38;;;-4.48;89.69
11395;BME280;5753;54.402;10.220;2024-01-16T04:30:12;100479.72;;;-4.49;90.04
11395;BME280;5753;54.402;10.220;2024-01-16T04:32:38;100474.66;;;-4.52;89.52
11395;BME280;5753;54.402;10.220;2024-01-16T04:35:06;100467.84;;;-4.58;89.66
11395;BME280;5753;54.402;10.220;2024-01-16T04:37:34;100465.28;;;-4.59;89.54
11395;BME280;5753;54.402;10.220;2024-01-16T04:40:04;100476.19;;;-4.62;89.57
11395;BME280;5753;54.402;10.220;2024-01-16T04:42:33;100477.81;;;-4.65;89.65
11395;BME280;5753;54.402;10.220;2024-01-16T04:45:03;100481.97;;;-4.67;90.13
11395;BME280;5753;54.402;10.220;2024-01-16T04:47:29;100480.16;;;-4.76;89.58
11395;BME280;5753;54.402;10.220;2024-01-16T04:50:00;100477.59;;;-4.80;89.75
11395;BME280;5753;54.402;10.220;2024-01-16T04:52:27;100480.81;;;-4.88;89.84
11395;BME280;5753;54.402;10.220;2024-01-16T04:54:56;100473.94;;;-4.98;89.80
11395;BME280;5753;54.402;10.220;2024-01-16T04:57:23;100474.78;;;-4.99;89.83
11395;BME280;5753;54.402;10.220;2024-01-16T04:59:50;100481.34;;;-5.07;90.26
11395;BME280;5753;54.402;10.220;2024-01-16T05:02:18;100488.03;;;-5.09;89.88
11395;BME280;5753;54.402;10.220;2024-01-16T05:04:44;100494.94;;;-4.99;89.95
11395;BME280;5753;54.402;10.220;2024-01-16T05:07:16;100486.63;;;-4.92;90.43
11395;BME280;5753;54.402;10.220;2024-01-16T05:09:44;100492.66;;;-4.82;90.40
11395;BME280;5753;54.402;10.220;2024-01-16T05:12:13;100486.34;;;-4.57;90.17
11395;BME280;5753;54.402;10.220;2024-01-16T05:14:41;100488.19;;;-4.46;90.48
11395;BME280;5753;54.402;10.220;2024-01-16T05:17:08;100480.75;;;-4.36;90.40
11395;BME280;5753;54.402;10.220;2024-01-16T05:19:34;100475.72;;;-4.35;90.04
11395;BME280;5753;54.402;10.220;2024-01-16T05:22:02;100479.13;;;-4.33;90.36
11395;BME280;5753;54.402;10.220;2024-01-16T05:24:29;100471.53;;;-4.34;90.17
11395;BME280;5753;54.402;10.220;2024-01-16T05:26:55;100473.97;;;-4.42;90.16
11395;BME280;5753;54.402;10.220;2024-01-16T05:29:23;100476.50;;;-4.39;89.74
11395;BME280;5753;54.402;10.220;2024-01-16T05:31:50;100478.22;;;-4.38;90.23
11395;BME280;5753;54.402;10.220;2024-01-16T05:34:16;100466.53;;;-4.33;90.25
11395;BME280;5753;54.402;10.220;2024-01-16T05:36:42;100464.03;;;-4.30;90.20
11395;BME280;5753;54.402;10.220;2024-01-16T05:39:11;100473.34;;;-4.24;89.82
11395;BME280;5753;54.402;10.220;2024-01-16T05:41:39;100465.81;;;-4.23;90.39
11395;BME280;5753;54.402;10.220;2024-01-16T05:44:07;100451.50;;;-4.24;90.46
11395;BME280;5753;54.402;10.220;2024-01-16T05:46:33;100459.97;;;-4.22;90.38
11395;BME280;5753;54.402;10.220;2024-01-16T05:49:00;100458.19;;;-4.27;90.47
11395;BME280;5753;54.402;10.220;2024-01-16T05:51:28;100456.53;;;-4.27;90.62
11395;BME280;5753;54.402;10.220;2024-01-16T05:53:55;100450.56;;;-4.33;90.34
11395;BME280;5753;54.402;10.220;2024-01-16T05:56:23;100448.78;;;-4.39;90.54
11395;BME280;5753;54.402;10.220;2024-01-16T05:58:50;100449.66;;;-4.37;90.34
11395;BME280;5753;54.402;10.220;2024-01-16T06:01:18;100447.91;;;-4.43;90.80
11395;BME280;5753;54.402;10.220;2024-01-16T06:03:44;100444.50;;;-4.45;90.75
11395;BME280;5753;54.402;10.220;2024-01-16T06:06:14;100441.91;;;-4.52;90.83
11395;BME280;5753;54.402;10.220;2024-01-16T06:08:43;100436.81;;;-4.55;90.49
11395;BME280;5753;54.402;10.220;2024-01-16T06:11:11;100435.06;;;-4.59;90.74
11395;BME280;5753;54.402;10.220;2024-01-16T06:13:39;100435.03;;;-4.62;90.85
11395;BME280;5753;54.402;10.220;2024-01-16T06:16:09;100431.59;;;-4.67;91.00
11395;BME280;5753;54.402;10.220;2024-01-16T06:18:38;100431.63;;;-4.66;91.00
11395;BME280;5753;54.402;10.220;2024-01-16T06:21:06;100428.19;;;-4.71;90.71
11395;BME280;5753;54.402;10.220;2024-01-16T06:23:34;100434.16;;;-4.64;90.92
11395;BME280;5753;54.402;10.220;2024-01-16T06:26:01;100440.00;;;-4.67;90.73
11395;BME280;5753;54.402;10.220;2024-01-16T06:28:29;100440.09;;;-4.59;90.78
11395;BME280;5753;54.402;10.220;2024-01-16T06:30:55;100442.75;;;-4.50;90.81
11395;BME280;5753;54.402;10.220;2024-01-16T06:33:21;100446.22;;;-4.44;90.83
11395;BME280;5753;54.402;10.220;2024-01-16T06:35:49;100455.56;;;-4.35;90.71
11395;BME280;5753;54.402;10.220;2024-01-16T06:38:17;100449.72;;;-4.32;90.85
11395;BME280;5753;54.402;10.220;2024-01-16T06:40:43;100459.00;;;-4.31;91.13
11395;BME280;5753;54.402;10.220;2024-01-16T06:43:10;100455.72;;;-4.24;90.84
11395;BME280;5753;54.402;10.220;2024-01-16T06:45:38;100454.06;;;-4.21;90.72
11395;BME280;5753;54.402;10.220;2024-01-16T06:48:06;100444.06;;;-4.15;90.78
11395;BME280;5753;54.402;10.220;2024-01-16T06:50:34;100444.94;;;-4.13;91.03
11395;BME280;5753;54.402;10.220;2024-01-16T06:53:00;100451.72;;;-4.09;90.79
11395;BME280;5753;54.402;10.220;2024-01-16T06:55:28;100455.13;;;-4.05;90.86
11395;BME280;5753;54.402;10.220;2024-01-16T06:57:56;100445.91;;;-4.03;90.75
11395;BME280;5753;54.402;10.220;2024-01-16T07:00:24;100451.78;;;-4.03;91.30
11395;BME280;5753;54.402;10.220;2024-01-16T07:02:53;100450.19;;;-3.98;90.85
11395;BME280;5753;54.402;10.220;2024-01-16T07:05:23;100449.31;;;-3.97;90.67
11395;BME280;5753;54.402;10.220;2024-01-16T07:07:50;100446.84;;;-3.93;91.15
11395;BME280;5753;54.402;10.220;2024-01-16T07:10:18;100450.97;;;-4.00;90.65
11395;BME280;5753;54.402;10.220;2024-01-16T07:12:47;100456.00;;;-4.02;91.09
11395;BME280;5753;54.402;10.220;2024-01-16T07:15:16;100454.31;;;-4.03;90.62
11395;BME280;5753;54.402;10.220;2024-01-16T07:17:43;100461.00;;;-4.05;91.12
11395;BME280;5753;54.402;10.220;2024-01-16T07:20:10;100463.59;;;-4.00;90.57
11395;BME280;5753;54.402;10.220;2024-01-16T07:22:37;100463.56;;;-4.02;91.12
11395;BME280;5753;54.402;10.220;2024-01-16T07:25:10;100461.13;;;-3.97;90.63
11395;BME280;5753;54.402;10.220;2024-01-16T07:27:38;100464.50;;;-3.92;90.68
11395;BME280;5753;54.402;10.220;2024-01-16T07:30:06;100459.56;;;-3.87;90.69
11395;BME280;5753;54.402;10.220;2024-01-16T07:32:34;100459.59;;;-3.83;90.54
11395;BME280;5753;54.402;10.220;2024-01-16T07:35:04;100459.63;;;-3.80;90.92
11395;BME280;5753;54.402;10.220;2024-01-16T07:37:32;100459.66;;;-3.77;90.63
11395;BME280;5753;54.402;10.220;2024-01-16T07:40:00;100460.53;;;-3.75;90.81
11395;BME280;5753;54.402;10.220;2024-01-16T07:42:28;100460.53;;;-3.75;90.89
11395;BME280;5753;54.402;10.220;2024-01-16T07:45:08;100462.19;;;-3.75;90.44
11395;BME280;5753;54.402;10.220;2024-01-16T07:47:36;100460.56;;;-3.70;90.42
11395;BME280;5753;54.402;10.220;2024-01-16T07:50:04;100459.75;;;-3.68;90.54
11395;BME280;5753;54.402;10.220;2024-01-16T07:52:32;100464.00;;;-3.65;90.42
11395;BME280;5753;54.402;10.220;2024-01-16T07:55:00;100464.91;;;-3.59;90.31
11395;BME280;5753;54.402;10.220;2024-01-16T07:57:30;100460.72;;;-3.57;90.14
11395;BME280;5753;54.402;10.220;2024-01-16T07:59:58;100450.69;;;-3.54;90.08
11395;BME280;5753;54.402;10.220;2024-01-16T08:02:32;100455.66;;;-3.60;90.00
11395;BME280;5753;54.402;10.220;2024-01-16T08:05:03;100461.50;;;-3.62;89.91
11395;BME280;5753;54.402;10.220;2024-01-16T08:07:31;100468.31;;;-3.55;90.29
11395;BME280;5753;54.402;10.220;2024-01-16T08:09:59;100465.00;;;-3.49;90.00
11395;BME280;5753;54.402;10.220;2024-01-16T08:12:26;100469.28;;;-3.42;89.82
11395;BME280;5753;54.402;10.220;2024-01-16T08:14:54;100468.50;;;-3.37;90.16
11395;BME280;5753;54.402;10.220;2024-01-16T08:17:21;100470.22;;;-3.33;90.00
11395;BME280;5753;54.402;10.220;2024-01-16T08:19:49;100466.06;;;-3.29;89.54
11395;BME280;5753;54.402;10.220;2024-01-16T08:22:17;100450.06;;;-3.28;89.77
11395;BME280;5753;54.402;10.220;2024-01-16T08:24:43;100447.56;;;-3.24;89.69
11395;BME280;5753;54.402;10.220;2024-01-16T08:27:11;100450.13;;;-3.21;89.64
11395;BME280;5753;54.402;10.220;2024-01-16T08:29:39;100454.41;;;-3.15;89.40
11395;BME280;5753;54.402;10.220;2024-01-16T08:32:07;100445.22;;;-3.05;89.36
11395;BME280;5753;54.402;10.220;2024-01-16T08:34:34;100441.88;;;-3.03;89.17
11395;BME280;5753;54.402;10.220;2024-01-16T08:37:03;100444.44;;;-2.97;89.13
11395;BME280;5753;54.402;10.220;2024-01-16T08:39:32;100441.94;;;-2.94;89.48
11395;BME280;5753;54.402;10.220;2024-01-16T08:42:02;100443.69;;;-2.84;89.21
11395;BME280;5753;54.402;10.220;2024-01-16T08:44:30;100442.91;;;-2.77;88.97
11395;BME280;5753;54.402;10.220;2024-01-16T08:46:58;100445.50;;;-2.68;89.23
11395;BME280;5753;54.402;10.220;2024-01-16T08:49:26;100453.13;;;-2.60;89.21
11395;BME280;5753;54.402;10.220;2024-01-16T08:51:54;100440.50;;;-2.60;88.66
11395;BME280;5753;54.402;10.220;2024-01-16T08:54:24;100444.66;;;-2.65;88.82
11395;BME280;5753;54.402;10.220;2024-01-16T08:56:53;100441.28;;;-2.66;88.33
11395;BME280;5753;54.402;10.220;2024-01-16T08:59:20;100446.34;;;-2.67;88.24
11395;BME280;5753;54.402;10.220;2024-01-16T09:01:47;100448.91;;;-2.63;88.35
11395;BME280;5753;54.402;10.220;2024-01-16T09:04:17;100444.66;;;-2.65;88.45
11395;BME280;5753;54.402;10.220;2024-01-16T09:06:45;100449.75;;;-2.62;88.21
11395;BME280;5753;54.402;10.220;2024-01-16T09:09:13;100464.13;;;-2.53;88.41
11395;BME280;5753;54.402;10.220;2024-01-16T09:11:41;100460.78;;;-2.46;88.26
11395;BME280;5753;54.402;10.220;2024-01-16T09:14:08;100457.53;;;-2.30;88.49
11395;BME280;5753;54.402;10.220;2024-01-16T09:16:35;100461.78;;;-2.20;88.27
11395;BME280;5753;54.402;10.220;2024-01-16T09:19:01;100461.84;;;-2.09;87.51
11395;BME280;5753;54.402;10.220;2024-01-16T09:21:29;100463.59;;;-1.96;87.37
11395;BME280;5753;54.402;10.220;2024-01-16T09:23:57;100473.75;;;-1.83;87.09
11395;BME280;5753;54.402;10.220;2024-01-16T09:26:24;100461.19;;;-1.61;87.15
11395;BME280;5753;54.402;10.220;2024-01-16T09:28:51;100468.78;;;-1.58;86.59
11395;BME280;5753;54.402;10.220;2024-01-16T09:31:19;100469.66;;;-1.44;86.27
11395;BME280;5753;54.402;10.220;2024-01-16T09:33:46;100471.38;;;-1.37;85.71
11395;BME280;5753;54.402;10.220;2024-01-16T09:36:13;100468.00;;;-1.42;86.13
11395;BME280;5753;54.402;10.220;2024-01-16T09:38:41;100462.94;;;-1.27;86.33
11395;BME280;5753;54.402;10.220;2024-01-16T09:41:08;100464.66;;;-1.17;85.75
11395;BME280;5753;54.402;10.220;2024-01-16T09:43:34;100461.28;;;-1.05;85.50
11395;BME280;5753;54.402;10.220;2024-01-16T09:46:02;100462.97;;;-0.88;85.61
11395;BME280;5753;54.402;10.220;2024-01-16T09:48:31;100460.44;;;-0.69;85.06
11395;BME280;5753;54.402;10.220;2024-01-16T09:50:57;100462.09;;;-0.52;85.16
11395;BME280;5753;54.402;10.220;2024-01-16T09:53:25;100457.88;;;-0.50;84.59
11395;BME280;5753;54.402;10.220;2024-01-16T09:55:55;100454.47;;;-0.46;84.38
11395;BME280;5753;54.402;10.220;2024-01-16T09:58:28;100453.63;;;-0.46;84.19
11395;BME280;5753;54.402;10.220;2024-01-16T10:00:59;100456.13;;;-0.26;84.21
11395;BME280;5753;54.402;10.220;2024-01-16T10:03:27;100458.66;;;-0.32;83.66
11395;BME280;5753;54.402;10.220;2024-01-16T10:05:57;100457.78;;;-0.19;83.39
11395;BME280;5753;54.402;10.220;2024-01-16T10:08:26;100453.59;;;-0.20;83.52
11395;BME280;5753;54.402;10.220;2024-01-16T10:10:54;100465.41;;;-0.19;83.01
11395;BME280;5753;54.402;10.220;2024-01-16T10:13:21;100460.31;;;-0.10;83.57
11395;BME280;5753;54.402;10.220;2024-01-16T10:15:50;100467.81;;;0.19;82.99
11395;BME280;5753;54.402;10.220;2024-01-16T10:18:29;100469.56;;;0.02;82.31
11395;BME280;5753;54.402;10.220;2024-01-16T10:20:57;100468.72;;;0.03;82.95
11395;BME280;5753;54.402;10.220;2024-01-16T10:26:14;100478.09;;;-0.22;82.61
11395;BME280;5753;54.402;10.220;2024-01-16T10:28:42;100473.03;;;-0.15;83.12
11395;BME280;5753;54.402;10.220;2024-01-16T10:31:12;100472.97;;;-0.07;83.05
11395;BME280;5753;54.402;10.220;2024-01-16T10:33:43;100478.88;;;-0.04;82.40
11395;BME280;5753;54.402;10.220;2024-01-16T10:36:14;100481.44;;;-0.10;82.72
11395;BME280;5753;54.402;10.220;2024-01-16T10:38:45;100482.25;;;0.02;83.10
11395;BME280;5753;54.402;10.220;2024-01-16T10:41:32;100479.75;;;-0.02;82.99
11395;BME280;5753;54.402;10.220;2024-01-16T10:44:07;100478.81;;;0.19;82.96
11395;BME280;5753;54.402;10.220;2024-01-16T10:46:35;100479.63;;;0.20;82.83
11395;BME280;5753;54.402;10.220;2024-01-16T10:49:06;100477.97;;;0.23;82.42
11395;BME280;5753;54.402;10.220;2024-01-16T10:51:33;100480.53;;;0.13;82.95
11395;BME280;5753;54.402;10.220;2024-01-16T10:54:05;100483.91;;;0.10;82.88
11395;BME280;5753;54.402;10.220;2024-01-16T10:56:38;100483.94;;;0.04;82.89
11395;BME280;5753;54.402;10.220;2024-01-16T11:02:43;100482.19;;;0.15;83.26
11395;BME280;5753;54.402;10.220;2024-01-16T11:05:17;100478.78;;;0.21;82.89
11395;BME280;5753;54.402;10.220;2024-01-16T11:07:45;100488.97;;;0.16;83.30
11395;BME280;5753;54.402;10.220;2024-01-16T11:10:13;100492.31;;;0.26;82.99
11395;BME280;5753;54.402;10.220;2024-01-16T11:12:41;100492.31;;;0.33;82.91
11395;BME280;5753;54.402;10.220;2024-01-16T11:15:10;100493.06;;;0.44;83.15
11395;BME280;5753;54.402;10.220;2024-01-16T11:17:38;100489.53;;;0.77;82.68
11395;BME280;5753;54.402;10.220;2024-01-16T11:20:09;100491.13;;;0.87;81.79
11395;BME280;5753;54.402;10.220;2024-01-16T11:22:41;100492.03;;;0.80;81.11
11395;BME280;5753;54.402;10.220;2024-01-16T11:25:18;100485.25;;;0.81;81.68
11395;BME280;5753;54.402;10.220;2024-01-16T11:27:47;100492.09;;;0.71;80.78
11395;BME280;5753;54.402;10.220;2024-01-16T11:30:30;100479.25;;;0.90;81.10
11395;BME280;5753;54.402;10.220;2024-01-16T11:33:55;100482.63;;;0.96;80.73
11395;BME280;5753;54.402;10.220;2024-01-16T11:36:50;100482.69;;;0.82;80.69
11395;BME280;5753;54.402;10.220;2024-01-16T11:39:26;100479.34;;;0.82;80.53
11395;BME280;5753;54.402;10.220;2024-01-16T11:42:25;100487.00;;;0.68;80.86
11395;BME280;5753;54.402;10.220;2024-01-16T11:44:53;100483.69;;;0.62;81.30
11395;BME280;5753;54.402;10.220;2024-01-16T11:47:24;100495.59;;;0.51;81.97
11395;BME280;5753;54.402;10.220;2024-01-16T11:50:12;100502.38;;;0.50;82.47
11395;BME280;5753;54.402;10.220;2024-01-16T11:52:45;100500.75;;;0.35;82.48
11395;BME280;5753;54.402;10.220;2024-01-16T11:55:31;100503.38;;;0.19;82.23
11395;BME280;5753;54.402;10.220;2024-01-16T12:01:15;100506.72;;;0.27;82.66
11395;BME280;5753;54.402;10.220;2024-01-16T12:03:43;100509.28;;;0.24;82.64
11395;BME280;5753;54.402;10.220;2024-01-16T12:06:10;100515.16;;;0.26;82.33
11395;BME280;5753;54.402;10.220;2024-01-16T12:08:38;100511.81;;;0.22;82.26
11395;BME280;5753;54.402;10.220;2024-01-16T12:11:06;100508.41;;;0.20;80.81
11395;BME280;5753;54.402;10.220;2024-01-16T12:13:34;100508.41;;;0.25;80.82
11395;BME280;5753;54.402;10.220;2024-01-16T12:16:05;100504.13;;;0.36;81.25
11395;BME280;5753;54.402;10.220;2024-01-16T12:18:32;100505.81;;;0.35;81.30
11395;BME280;5753;54.402;10.220;2024-01-16T12:21:09;100499.91;;;0.30;81.46
11395;BME280;5753;54.402;10.220;2024-01-16T12:23:37;100503.34;;;0.23;81.64
11395;BME280;5753;54.402;10.220;2024-01-16T12:26:04;100501.66;;;0.21;81.76
11395;BME280;5753;54.402;10.220;2024-01-16T12:28:31;100492.34;;;0.20;82.25
11395;BME280;5753;54.402;10.220;2024-01-16T12:30:59;100492.31;;;0.29;82.50
11395;BME280;5753;54.402;10.220;2024-01-16T12:33:28;100495.72;;;0.22;82.73
11395;BME280;5753;54.402;10.220;2024-01-16T12:36:03;100488.94;;;0.25;82.25
11395;BME280;5753;54.402;10.220;2024-01-16T12:38:31;100486.38;;;0.31;82.62
11395;BME280;5753;54.402;10.220;2024-01-16T12:40:59;100479.56;;;0.41;82.16
11395;BME280;5753;54.402;10.220;2024-01-16T12:43:28;100479.56;;;0.36;81.66
11395;BME280;5753;54.402;10.220;2024-01-16T12:46:00;100488.09;;;0.28;81.08
11395;BME280;5753;54.402;10.220;2024-01-16T12:48:28;100483.84;;;0.31;81.13
11395;BME280;5753;54.402;10.220;2024-01-16T12:51:02;100491.44;;;0.31;81.46
11395;BME280;5753;54.402;10.220;2024-01-16T12:53:29;100480.44;;;0.31;81.37
11395;BME280;5753;54.402;10.220;2024-01-16T12:56:00;100477.91;;;0.32;81.24
11395;BME280;5753;54.402;10.220;2024-01-16T12:58:36;100477.09;;;0.21;81.27
11395;BME280;5753;54.402;10.220;2024-01-16T13:01:28;100477.16;;;0.12;81.50
11395;BME280;5753;54.402;10.220;2024-01-16T13:03:56;100473.75;;;0.12;81.57
11395;BME280;5753;54.402;10.220;2024-01-16T13:06:23;100479.66;;;0.17;81.71
11395;BME280;5753;54.402;10.220;2024-01-16T13:09:03;100475.44;;;0.16;81.98
11395;BME280;5753;54.402;10.220;2024-01-16T13:11:49;100472.84;;;0.32;81.92